Time;durP1;ratioP1;P1;durP2;ratioP2;P2;SDS_P1;SDS_P2;PMS_P1;PMS_P2;Temp;Humidity;BMP_temperature;BMP_pressure;BME280_temperature;BME280_humidity;BME280_pressure;Samples;Min_cycle;Max_cycle;Signal;HPM_P1;HPM_P2
2022/02/15 00:01:06;;;;;;;1.83;1.73;;;16.90;46.40;;;;;;5008946;28;20480;-81
2022/02/15 00:03:34;;;;;;;2.97;2.40;;;16.90;46.40;;;;;;5010300;28;20913;-81
2022/02/15 00:06:02;;;;;;;3.00;2.07;;;16.90;46.40;;;;;;5011365;28;20491;-81
2022/02/15 00:08:30;;;;;;;2.00;1.80;;;16.90;46.40;;;;;;5011600;28;20414;-81
2022/02/15 00:10:58;;;;;;;4.00;2.23;;;16.90;46.30;;;;;;5012860;28;20448;-81
2022/02/15 00:13:26;;;;;;;3.80;1.70;;;16.90;46.50;;;;;;5014706;28;20464;-82
2022/02/15 00:15:54;;;;;;;2.37;2.17;;;16.90;46.40;;;;;;5012117;28;20477;-82
2022/02/15 00:18:23;;;;;;;3.70;1.70;;;16.90;46.50;;;;;;5012823;28;20433;-82
2022/02/15 00:20:51;;;;;;;2.03;1.50;;;16.90;46.50;;;;;;5009262;28;20468;-80
2022/02/15 00:23:19;;;;;;;1.70;1.53;;;16.90;46.40;;;;;;5013032;28;20442;-80
2022/02/15 00:25:49;;;;;;;3.67;1.90;;;16.90;46.50;;;;;;5011390;28;20481;-80
2022/02/15 00:28:17;;;;;;;1.93;1.57;;;16.90;46.50;;;;;;5011451;28;20440;-80
2022/02/15 00:30:45;;;;;;;2.30;1.90;;;16.90;46.50;;;;;;5010127;28;20446;-80
2022/02/15 00:33:13;;;;;;;3.80;1.93;;;16.90;46.60;;;;;;5011827;28;20417;-80
2022/02/15 00:35:42;;;;;;;5.00;2.33;;;16.90;46.50;;;;;;5009207;28;20453;-80
2022/02/15 00:38:10;;;;;;;1.80;1.70;;;17.00;46.60;;;;;;5011052;28;20961;-80
2022/02/15 00:40:38;;;;;;;3.30;1.83;;;16.90;46.50;;;;;;5012888;28;20496;-80
2022/02/15 00:43:06;;;;;;;2.17;1.90;;;16.90;46.40;;;;;;5013948;28;20429;-80
2022/02/15 00:45:35;;;;;;;1.80;1.60;;;16.90;46.60;;;;;;5013193;28;20472;-80
2022/02/15 00:48:03;;;;;;;3.27;1.90;;;16.90;46.60;;;;;;5012044;28;20450;-81
2022/02/15 00:50:31;;;;;;;3.20;1.67;;;16.90;46.70;;;;;;5013354;28;20421;-80
2022/02/15 00:53:00;;;;;;;3.63;1.70;;;16.90;46.80;;;;;;5010651;28;20413;-80
2022/02/15 00:55:28;;;;;;;3.43;2.07;;;16.90;46.80;;;;;;5012926;28;20461;-80
2022/02/15 00:57:56;;;;;;;1.97;1.80;;;16.90;46.70;;;;;;5012599;28;20476;-80
2022/02/15 01:00:24;;;;;;;3.77;1.60;;;16.90;46.80;;;;;;5011945;28;20465;-80
2022/02/15 01:02:52;;;;;;;2.30;1.93;;;16.90;46.80;;;;;;5012181;28;20465;-80
2022/02/15 01:05:20;;;;;;;1.80;1.63;;;16.90;46.90;;;;;;5010071;28;20496;-80
2022/02/15 01:07:48;;;;;;;2.10;1.90;;;16.90;46.90;;;;;;5012278;28;20523;-80
2022/02/15 01:10:20;;;;;;;1.70;1.60;;;16.90;46.90;;;;;;5012460;28;20430;-80
2022/02/15 01:12:48;;;;;;;2.77;1.73;;;16.90;46.90;;;;;;5012111;28;20464;-80
2022/02/15 01:15:16;;;;;;;2.77;1.70;;;16.80;46.90;;;;;;5012565;28;20461;-80
2022/02/15 01:17:44;;;;;;;2.40;1.90;;;16.90;47.00;;;;;;5011861;28;20417;-80
2022/02/15 01:20:12;;;;;;;2.00;1.50;;;16.90;47.00;;;;;;5010213;28;20516;-80
2022/02/15 01:22:40;;;;;;;2.93;1.40;;;16.90;46.90;;;;;;5012026;28;20441;-80
2022/02/15 01:25:09;;;;;;;2.47;1.70;;;16.90;47.00;;;;;;5006960;28;20472;-81
2022/02/15 01:27:38;;;;;;;2.50;1.70;;;16.90;47.10;;;;;;5012621;28;20429;-80
2022/02/15 01:30:07;;;;;;;3.10;1.90;;;16.80;46.90;;;;;;5011684;28;20461;-80
2022/02/15 01:32:35;;;;;;;2.67;1.57;;;16.90;47.10;;;;;;5012156;28;20437;-80
2022/02/15 01:35:03;;;;;;;6.63;1.53;;;16.80;46.90;;;;;;5010685;28;20480;-80
2022/02/15 01:37:31;;;;;;;2.27;1.60;;;16.80;47.10;;;;;;5012357;28;20491;-80
2022/02/15 01:39:59;;;;;;;1.77;1.60;;;16.80;47.10;;;;;;5011625;28;20449;-80
2022/02/15 01:42:27;;;;;;;1.60;1.50;;;16.80;47.20;;;;;;5010791;28;20485;-80
2022/02/15 01:44:56;;;;;;;1.70;1.40;;;16.80;47.20;;;;;;5011116;28;20474;-80
2022/02/15 01:47:25;;;;;;;2.00;1.37;;;16.80;47.10;;;;;;5013501;28;20444;-81
2022/02/15 01:49:53;;;;;;;5.17;1.33;;;16.80;47.20;;;;;;4998747;28;20453;-80
2022/02/15 01:52:21;;;;;;;2.00;1.50;;;16.80;47.20;;;;;;4997701;28;20534;-81
2022/02/15 01:54:50;;;;;;;1.80;1.13;;;16.80;47.40;;;;;;4995534;28;20544;-80
2022/02/15 01:57:18;;;;;;;2.77;1.37;;;16.80;47.20;;;;;;4993547;28;20484;-80
2022/02/15 01:59:46;;;;;;;1.40;1.30;;;16.80;47.40;;;;;;4991319;28;20449;-80
2022/02/15 02:02:15;;;;;;;1.13;1.03;;;16.80;47.30;;;;;;4992807;28;20469;-80
2022/02/15 02:07:29;;;;;;;2.03;1.47;;;16.70;47.40;;;;;;4993782;28;20484;-80
2022/02/15 02:09:57;;;;;;;1.77;1.40;;;16.70;47.40;;;;;;4992872;28;20495;-80
2022/02/15 02:12:25;;;;;;;3.27;1.50;;;16.70;47.40;;;;;;4994499;28;20480;-80
2022/02/15 02:14:59;;;;;;;1.97;1.50;;;16.70;47.40;;;;;;4995349;28;20465;-80
2022/02/15 02:17:28;;;;;;;4.40;1.30;;;16.70;47.50;;;;;;4995920;28;20459;-80
2022/02/15 02:19:56;;;;;;;2.20;1.30;;;16.70;47.60;;;;;;4996337;28;20480;-80
2022/02/15 02:22:26;;;;;;;2.13;1.30;;;16.70;47.50;;;;;;4996153;28;20469;-80
2022/02/15 02:24:54;;;;;;;4.43;1.20;;;16.70;47.50;;;;;;4996348;28;20492;-80
2022/02/15 02:27:23;;;;;;;2.60;1.43;;;16.70;47.50;;;;;;4997952;28;20454;-80
2022/02/15 02:29:53;;;;;;;1.40;1.30;;;16.70;47.60;;;;;;4998893;28;20468;-80
2022/02/15 02:32:21;;;;;;;1.50;1.40;;;16.70;47.60;;;;;;4999108;28;20445;-80
2022/02/15 02:34:49;;;;;;;1.30;1.20;;;16.70;47.60;;;;;;4996041;28;20489;-80
2022/02/15 02:37:17;;;;;;;1.77;1.30;;;16.70;47.70;;;;;;5001119;28;20473;-80
2022/02/15 02:39:48;;;;;;;2.07;1.37;;;16.70;47.60;;;;;;5000899;28;20445;-80
2022/02/15 02:42:17;;;;;;;2.93;1.70;;;16.70;47.60;;;;;;4995293;28;20517;-80
2022/02/15 02:44:45;;;;;;;1.73;1.30;;;16.70;47.60;;;;;;4997408;28;20465;-80
2022/02/15 02:47:13;;;;;;;1.90;1.30;;;16.70;47.70;;;;;;4997233;28;20445;-80
2022/02/15 02:49:41;;;;;;;1.20;1.10;;;16.60;47.50;;;;;;4998300;28;20496;-80
2022/02/15 02:52:08;;;;;;;1.43;1.33;;;16.70;47.70;;;;;;4998073;28;20441;-80
2022/02/15 02:54:36;;;;;;;1.53;1.30;;;16.70;47.70;;;;;;4997413;28;20465;-80
2022/02/15 02:57:06;;;;;;;2.90;1.20;;;16.70;47.80;;;;;;4998900;28;20496;-80
2022/02/15 02:59:34;;;;;;;1.67;1.40;;;16.60;47.60;;;;;;4999397;28;20468;-80
2022/02/15 03:02:02;;;;;;;1.50;1.40;;;16.60;47.60;;;;;;4997476;28;20461;-80
2022/02/15 03:04:30;;;;;;;1.30;1.20;;;16.60;47.70;;;;;;4998959;28;20476;-80
2022/02/15 03:06:58;;;;;;;1.57;1.47;;;16.60;47.80;;;;;;5000125;28;20433;-80
2022/02/15 03:09:26;;;;;;;2.80;1.13;;;16.60;47.80;;;;;;5000503;28;20444;-80
2022/02/15 03:11:54;;;;;;;1.73;1.33;;;16.60;47.80;;;;;;5000272;28;20429;-80
2022/02/15 03:14:23;;;;;;;1.73;1.30;;;16.60;47.80;;;;;;4999882;28;20859;-80
2022/02/15 03:16:52;;;;;;;1.40;1.30;;;16.60;47.80;;;;;;5000643;28;20975;-80
2022/02/15 03:19:19;;;;;;;1.27;1.17;;;16.60;47.80;;;;;;5000649;28;20437;-80
2022/02/15 03:21:47;;;;;;;1.77;1.43;;;16.60;48.60;;;;;;5000888;28;20473;-80
2022/02/15 03:24:15;;;;;;;1.70;1.33;;;16.60;47.80;;;;;;5002124;28;20469;-80
2022/02/15 03:26:43;;;;;;;1.70;1.60;;;16.50;47.80;;;;;;5004708;28;20452;-80
2022/02/15 03:29:12;;;;;;;2.23;1.57;;;16.60;47.90;;;;;;5004990;28;20441;-80
2022/02/15 03:31:41;;;;;;;3.73;1.33;;;16.50;48.00;;;;;;5005037;28;20453;-80
2022/02/15 03:34:09;;;;;;;1.93;1.53;;;16.50;47.90;;;;;;5004467;28;20465;-80
2022/02/15 03:36:37;;;;;;;1.53;1.43;;;16.50;47.90;;;;;;5005564;28;20442;-80
2022/02/15 03:39:05;;;;;;;1.50;1.40;;;16.60;48.00;;;;;;5005843;28;20442;-80
2022/02/15 03:44:18;;;;;;;1.07;1.07;;;16.50;48.10;;;;;;5005879;28;20456;-80
2022/02/15 03:46:48;;;;;;;1.27;1.27;;;16.50;48.00;;;;;;5006334;28;20433;-80
2022/02/15 03:49:20;;;;;;;2.33;1.47;;;16.50;48.00;;;;;;5003603;28;20456;-80
2022/02/15 03:52:06;;;;;;;2.00;1.73;;;16.60;48.10;;;;;;5010630;28;20488;-80
2022/02/15 03:54:34;;;;;;;1.70;1.53;;;16.50;47.90;;;;;;5007678;28;20469;-80
2022/02/15 03:57:01;;;;;;;1.53;1.40;;;16.50;48.20;;;;;;5004566;28;20449;-80
2022/02/15 03:59:29;;;;;;;3.70;1.73;;;16.50;48.10;;;;;;5004304;28;20488;-80
2022/02/15 04:01:59;;;;;;;1.30;1.30;;;16.60;48.20;;;;;;5006194;28;20500;-80
2022/02/15 04:04:26;;;;;;;2.60;1.37;;;16.50;48.10;;;;;;5004349;28;20457;-80
2022/02/15 04:06:55;;;;;;;1.83;1.50;;;16.50;48.20;;;;;;5005886;28;20459;-80
2022/02/15 04:09:23;;;;;;;1.20;1.20;;;16.50;48.20;;;;;;5012299;28;20442;-80
2022/02/15 04:11:51;;;;;;;2.60;1.70;;;16.50;48.20;;;;;;5011561;28;20441;-80
2022/02/15 04:14:19;;;;;;;1.37;1.30;;;16.50;48.80;;;;;;5007011;28;20485;-80
2022/02/15 04:16:47;;;;;;;6.00;1.53;;;16.50;48.30;;;;;;5006548;28;20469;-80
2022/02/15 04:19:17;;;;;;;1.60;1.43;;;16.60;48.40;;;;;;5007580;28;20473;-80
2022/02/15 04:21:45;;;;;;;1.40;1.30;;;16.50;48.20;;;;;;5006462;28;20457;-80
2022/02/15 04:24:13;;;;;;;2.60;1.43;;;16.60;48.30;;;;;;5006877;28;20453;-80
2022/02/15 04:26:41;;;;;;;1.77;1.57;;;16.50;48.30;;;;;;5007561;28;20476;-81
2022/02/15 04:29:09;;;;;;;2.07;1.87;;;16.60;48.40;;;;;;5008322;28;20456;-81
2022/02/15 04:31:37;;;;;;;1.53;1.43;;;16.50;48.20;;;;;;5004208;28;20464;-80
2022/02/15 04:34:05;;;;;;;1.47;1.40;;;16.50;48.30;;;;;;5008399;28;20458;-80
2022/02/15 04:36:34;;;;;;;1.60;1.50;;;16.50;48.30;;;;;;5006197;28;20449;-80
2022/02/15 04:39:02;;;;;;;1.70;1.60;;;16.50;48.40;;;;;;5006355;28;20468;-80
2022/02/15 04:41:30;;;;;;;1.50;1.40;;;16.50;48.50;;;;;;5007663;28;20484;-80
2022/02/15 04:43:59;;;;;;;1.47;1.37;;;16.50;48.40;;;;;;5007489;28;20481;-80
2022/02/15 04:46:27;;;;;;;1.43;1.33;;;16.50;48.40;;;;;;5007809;28;20434;-80
2022/02/15 04:48:55;;;;;;;3.03;1.60;;;16.40;48.40;;;;;;5008444;28;20544;-80
2022/02/15 04:51:23;;;;;;;1.73;1.40;;;16.40;48.60;;;;;;5007855;28;20429;-80
2022/02/15 04:53:52;;;;;;;1.80;1.67;;;16.40;48.50;;;;;;5006675;28;20449;-80
2022/02/15 04:56:20;;;;;;;2.27;1.50;;;16.40;48.60;;;;;;5007810;28;20445;-80
2022/02/15 04:58:48;;;;;;;2.60;1.40;;;16.50;48.60;;;;;;5007746;28;20901;-80
2022/02/15 05:01:16;;;;;;;1.60;1.50;;;16.50;48.60;;;;;;5008154;28;20434;-80
2022/02/15 05:03:44;;;;;;;2.40;1.60;;;16.40;48.50;;;;;;5007705;28;20476;-81
2022/02/15 05:06:12;;;;;;;2.80;1.70;;;16.40;48.60;;;;;;5007107;28;20456;-81
2022/02/15 05:08:40;;;;;;;1.60;1.50;;;16.40;48.50;;;;;;5007017;28;20477;-80
2022/02/15 05:11:09;;;;;;;1.60;1.50;;;16.40;48.60;;;;;;5007445;28;20457;-80
2022/02/15 05:13:37;;;;;;;1.97;1.47;;;16.40;48.70;;;;;;5007893;28;20496;-80
2022/02/15 05:16:05;;;;;;;1.53;1.43;;;16.40;48.70;;;;;;5007961;28;20472;-80
2022/02/15 05:18:33;;;;;;;2.37;1.50;;;16.40;48.70;;;;;;5007459;28;20438;-80
2022/02/15 05:21:05;;;;;;;2.73;2.03;;;16.40;48.60;;;;;;5008078;28;20430;-81
2022/02/15 05:23:33;;;;;;;1.73;1.60;;;16.40;48.70;;;;;;5008962;28;20499;-81
2022/02/15 05:26:02;;;;;;;1.60;1.50;;;16.40;48.70;;;;;;5008645;28;20535;-81
2022/02/15 05:28:31;;;;;;;2.43;1.70;;;16.40;48.60;;;;;;5008318;28;20458;-81
2022/02/15 05:31:01;;;;;;;1.70;1.60;;;16.40;48.60;;;;;;5008923;28;20434;-81
2022/02/15 05:33:29;;;;;;;2.83;1.67;;;16.40;48.70;;;;;;5006943;28;20438;-81
2022/02/15 05:35:57;;;;;;;2.80;2.00;;;16.40;48.60;;;;;;5003647;28;20453;-80
2022/02/15 05:38:25;;;;;;;3.00;1.70;;;16.40;48.80;;;;;;5008508;28;20481;-81
2022/02/15 05:40:53;;;;;;;1.50;1.40;;;16.40;48.70;;;;;;5009003;28;20465;-81
2022/02/15 05:43:21;;;;;;;1.30;1.20;;;16.40;48.70;;;;;;5008706;28;20476;-81
2022/02/15 05:45:51;;;;;;;1.63;1.53;;;16.40;48.70;;;;;;5007660;28;20481;-81
2022/02/15 05:48:19;;;;;;;1.57;1.47;;;16.40;48.80;;;;;;5008461;28;20446;-81
2022/02/15 05:50:53;;;;;;;1.73;1.63;;;16.40;48.80;;;;;;5008380;28;20445;-81
2022/02/15 05:53:22;;;;;;;1.67;1.40;;;16.30;48.90;;;;;;5009394;28;20429;-81
2022/02/15 05:55:52;;;;;;;2.30;1.93;;;16.30;48.80;;;;;;5007587;28;20473;-81
2022/02/15 05:58:20;;;;;;;1.70;1.53;;;16.30;48.90;;;;;;5006518;28;20490;-81
2022/02/15 06:00:48;;;;;;;1.37;1.27;;;16.30;48.90;;;;;;5006872;28;20453;-80
2022/02/15 06:06:04;;;;;;;1.63;1.50;;;16.30;49.10;;;;;;5005967;28;20457;-80
2022/02/15 06:08:34;;;;;;;2.17;1.80;;;16.30;49.00;;;;;;5007074;28;20430;-80
2022/02/15 06:11:01;;;;;;;1.73;1.63;;;16.30;49.00;;;;;;5006326;28;20442;-80
2022/02/15 06:13:29;;;;;;;1.83;1.67;;;16.20;49.00;;;;;;5005394;28;20445;-81
2022/02/15 06:15:57;;;;;;;1.50;1.40;;;16.30;49.10;;;;;;5005479;28;20480;-80
2022/02/15 06:18:27;;;;;;;1.93;1.50;;;16.30;49.00;;;;;;5004611;28;20465;-81
2022/02/15 06:20:54;;;;;;;2.50;1.80;;;16.30;49.00;;;;;;5005656;28;20438;-80
2022/02/15 06:23:22;;;;;;;2.80;1.70;;;16.30;49.00;;;;;;5004721;28;20500;-80
2022/02/15 06:25:50;;;;;;;1.67;1.57;;;16.30;49.10;;;;;;5006248;28;20461;-80
2022/02/15 06:28:18;;;;;;;1.60;1.50;;;16.30;49.10;;;;;;5005955;28;20429;-80
2022/02/15 06:30:46;;;;;;;2.70;1.83;;;16.30;49.10;;;;;;5005311;28;20442;-81
2022/02/15 06:33:14;;;;;;;1.77;1.67;;;16.30;49.00;;;;;;5005482;28;20959;-81
2022/02/15 06:35:43;;;;;;;1.70;1.60;;;16.30;49.10;;;;;;5004228;28;20484;-81
2022/02/15 06:38:11;;;;;;;3.17;1.60;;;16.30;49.10;;;;;;5005006;28;20434;-81
2022/02/15 06:40:41;;;;;;;1.67;1.57;;;16.30;49.00;;;;;;5005317;28;20437;-80
2022/02/15 06:43:10;;;;;;;1.80;1.70;;;16.30;49.20;;;;;;5004311;28;20449;-80
2022/02/15 06:45:38;;;;;;;3.37;2.10;;;16.30;49.00;;;;;;5005601;28;20469;-81
2022/02/15 06:48:06;;;;;;;1.83;1.73;;;16.30;49.20;;;;;;5004726;28;20813;-81
2022/02/15 06:50:34;;;;;;;3.67;1.80;;;16.30;49.20;;;;;;5002181;28;20457;-81
2022/02/15 06:53:03;;;;;;;2.70;1.57;;;16.30;49.20;;;;;;5001746;28;20453;-81
2022/02/15 06:55:51;;;;;;;2.17;1.97;;;16.30;49.20;;;;;;5002281;28;20563;-81
2022/02/15 06:58:22;;;;;;;1.93;1.83;;;16.30;49.10;;;;;;5002549;28;20437;-81
2022/02/15 07:00:50;;;;;;;3.30;1.90;;;16.30;49.10;;;;;;5006102;28;20484;-81
2022/02/15 07:03:18;;;;;;;1.87;1.77;;;16.30;49.20;;;;;;5005441;28;20452;-81
2022/02/15 07:05:46;;;;;;;2.60;1.87;;;16.30;49.20;;;;;;5004338;28;20484;-80
2022/02/15 07:08:15;;;;;;;1.93;1.70;;;16.40;49.20;;;;;;5005169;28;20453;-81
2022/02/15 07:10:44;;;;;;;1.90;1.50;;;16.30;49.10;;;;;;5005097;28;20436;-81
2022/02/15 07:13:11;;;;;;;1.77;1.67;;;16.40;49.20;;;;;;5005668;28;20474;-81
2022/02/15 07:15:39;;;;;;;2.07;1.67;;;16.40;49.20;;;;;;5005847;28;20481;-81
2022/02/15 07:18:07;;;;;;;1.77;1.57;;;16.30;49.10;;;;;;5005832;28;20448;-81
2022/02/15 07:20:35;;;;;;;2.60;1.50;;;16.40;49.20;;;;;;5005137;28;20481;-81
2022/02/15 07:23:06;;;;;;;1.63;1.53;;;16.40;49.20;;;;;;5004634;28;20488;-80
2022/02/15 07:25:38;;;;;;;2.70;1.90;;;16.40;49.10;;;;;;5006000;28;20499;-81
2022/02/15 07:28:06;;;;;;;2.97;1.70;;;16.40;49.20;;;;;;5006901;28;20441;-81
2022/02/15 07:30:35;;;;;;;1.70;1.60;;;16.40;49.20;;;;;;5006154;28;20464;-81
2022/02/15 07:33:03;;;;;;;2.17;2.07;;;16.40;49.20;;;;;;5006435;28;20449;-81
2022/02/15 07:35:31;;;;;;;1.90;1.70;;;16.40;49.10;;;;;;5006007;28;20445;-81
2022/02/15 07:37:59;;;;;;;1.90;1.80;;;16.40;49.10;;;;;;5006605;28;20437;-81
2022/02/15 07:40:28;;;;;;;2.10;2.00;;;16.50;49.20;;;;;;5005751;28;20461;-81
2022/02/15 07:42:57;;;;;;;1.80;1.70;;;16.50;49.10;;;;;;5008459;28;20465;-81
2022/02/15 07:45:25;;;;;;;4.33;1.83;;;16.50;49.00;;;;;;5008964;28;20976;-81
2022/02/15 07:47:53;;;;;;;3.77;2.00;;;16.50;49.00;;;;;;5008610;28;20445;-81
2022/02/15 07:50:22;;;;;;;2.20;2.00;;;16.50;49.10;;;;;;5010300;28;20468;-81
2022/02/15 07:52:52;;;;;;;2.97;2.30;;;16.50;49.00;;;;;;5008546;28;20453;-81
2022/02/15 07:55:20;;;;;;;2.10;1.90;;;16.50;49.00;;;;;;5000485;28;20465;-81
2022/02/15 07:57:48;;;;;;;3.80;2.13;;;16.50;49.10;;;;;;4996443;28;20507;-81
2022/02/15 08:00:21;;;;;;;2.47;2.30;;;16.60;49.10;;;;;;4999158;28;20449;-81
2022/02/15 08:02:49;;;;;;;2.10;2.00;;;16.60;49.10;;;;;;4997515;28;20991;-82
2022/02/15 08:05:17;;;;;;;2.00;1.63;;;16.60;49.00;;;;;;4997654;28;20473;-82
2022/02/15 08:07:47;;;;;;;2.60;2.00;;;16.60;49.00;;;;;;4997797;28;20433;-82
2022/02/15 08:10:18;;;;;;;2.57;2.23;;;16.70;49.10;;;;;;4997735;28;20441;-82
2022/02/15 08:12:48;;;;;;;2.10;1.90;;;16.70;48.80;;;;;;4996598;28;20457;-82
2022/02/15 08:15:17;;;;;;;4.00;2.20;;;16.70;48.90;;;;;;4997553;28;20458;-82
2022/02/15 08:17:45;;;;;;;2.07;1.87;;;16.80;48.80;;;;;;4997905;28;20445;-82
2022/02/15 08:20:13;;;;;;;2.43;2.20;;;16.80;48.80;;;;;;4997747;28;20441;-82
2022/02/15 08:22:41;;;;;;;2.20;2.00;;;16.90;48.90;;;;;;4998408;28;20959;-82
2022/02/15 08:25:09;;;;;;;1.83;1.73;;;16.90;48.70;;;;;;4998165;28;20504;-82
2022/02/15 08:27:37;;;;;;;3.10;2.30;;;16.90;48.80;;;;;;4997949;28;20433;-81
2022/02/15 08:30:06;;;;;;;2.33;2.00;;;17.00;48.70;;;;;;4996340;28;20916;-81
2022/02/15 08:32:35;;;;;;;2.30;2.10;;;17.00;48.80;;;;;;4996969;28;20429;-81
2022/02/15 08:35:05;;;;;;;3.33;2.13;;;17.00;48.70;;;;;;4997364;28;20497;-81
2022/02/15 08:37:33;;;;;;;2.40;2.20;;;17.10;48.80;;;;;;4997100;28;20473;-81
2022/02/15 08:40:01;;;;;;;2.27;2.10;;;17.10;48.70;;;;;;4997192;28;20472;-81
2022/02/15 08:42:29;;;;;;;2.20;1.93;;;17.10;48.70;;;;;;5009134;28;20429;-81
2022/02/15 08:44:57;;;;;;;2.30;2.20;;;17.20;48.80;;;;;;5007498;28;20476;-81
2022/02/15 08:47:25;;;;;;;3.73;2.10;;;17.20;48.70;;;;;;5005803;28;20460;-81
2022/02/15 08:49:54;;;;;;;2.67;2.10;;;17.20;48.60;;;;;;5006528;28;20436;-81
2022/02/15 08:52:23;;;;;;;2.80;2.20;;;17.20;48.60;;;;;;5009017;28;20437;-81
2022/02/15 08:54:51;;;;;;;3.07;2.03;;;17.20;48.40;;;;;;5010653;28;20460;-81
2022/02/15 08:57:19;;;;;;;2.47;2.27;;;17.30;48.60;;;;;;5007023;28;20489;-81
2022/02/15 08:59:47;;;;;;;3.33;2.27;;;17.20;48.50;;;;;;5008189;28;20437;-81
2022/02/15 09:02:15;;;;;;;2.50;1.90;;;17.30;48.60;;;;;;5006445;28;20457;-81
2022/02/15 09:04:43;;;;;;;2.90;1.93;;;17.30;48.70;;;;;;5007227;28;20472;-81
2022/02/15 09:07:12;;;;;;;2.83;2.20;;;17.30;48.50;;;;;;5006922;28;20468;-81
2022/02/15 09:09:40;;;;;;;3.37;2.10;;;17.30;48.50;;;;;;5007436;28;20495;-81
2022/02/15 09:12:09;;;;;;;4.30;2.43;;;17.30;48.70;;;;;;5008089;28;20433;-81
2022/02/15 09:14:37;;;;;;;2.50;2.30;;;17.30;48.60;;;;;;5006625;28;20465;-81
2022/02/15 09:17:05;;;;;;;3.23;2.10;;;17.30;48.70;;;;;;5007223;28;20438;-81
2022/02/15 09:19:34;;;;;;;2.13;1.90;;;17.30;48.60;;;;;;5005476;28;20458;-81
2022/02/15 09:22:03;;;;;;;2.60;2.37;;;17.30;48.80;;;;;;5006162;28;20481;-81
2022/02/15 09:24:32;;;;;;;2.70;2.50;;;17.40;48.70;;;;;;5006887;28;20469;-81
2022/02/15 09:27:00;;;;;;;2.07;1.97;;;17.50;48.80;;;;;;5007210;28;20457;-81
2022/02/15 09:29:28;;;;;;;3.03;2.30;;;17.50;48.50;;;;;;5007128;28;20503;-81
2022/02/15 09:31:56;;;;;;;2.47;2.20;;;17.50;48.60;;;;;;5006866;28;20448;-81
2022/02/15 09:34:24;;;;;;;2.50;2.30;;;17.60;48.40;;;;;;5007147;28;20506;-81
2022/02/15 09:36:52;;;;;;;2.67;2.47;;;17.60;48.50;;;;;;5005478;28;20453;-81
2022/02/15 09:39:20;;;;;;;2.40;2.03;;;17.60;48.40;;;;;;5006641;28;20452;-80
2022/02/15 09:41:49;;;;;;;3.13;2.30;;;17.70;48.40;;;;;;4996547;28;20465;-81
2022/02/15 09:44:17;;;;;;;3.33;2.70;;;17.70;48.40;;;;;;4993786;28;20492;-81
2022/02/15 09:46:45;;;;;;;2.50;2.03;;;17.80;48.50;;;;;;4993561;28;20539;-80
2022/02/15 09:51:55;;;;;;;2.20;2.10;;;17.70;48.30;;;;;;4991562;28;20508;-80
2022/02/15 09:54:22;;;;;;;1.83;1.73;;;17.80;48.20;;;;;;4993519;28;20504;-81
2022/02/15 09:56:52;;;;;;;2.13;2.03;;;17.80;48.40;;;;;;4993382;28;20503;-81
2022/02/15 09:59:20;;;;;;;2.07;1.93;;;17.80;48.30;;;;;;4993689;28;20429;-80
2022/02/15 10:01:48;;;;;;;2.10;2.00;;;17.80;48.20;;;;;;4996325;28;20511;-81
2022/02/15 10:04:16;;;;;;;4.70;2.00;;;17.80;48.40;;;;;;4994494;28;20500;-80
2022/02/15 10:06:43;;;;;;;2.33;2.13;;;17.90;48.40;;;;;;4992944;28;20500;-80
2022/02/15 10:09:11;;;;;;;2.50;2.30;;;17.80;48.20;;;;;;4994543;28;21070;-80
2022/02/15 10:11:40;;;;;;;1.97;1.73;;;17.90;48.10;;;;;;4994899;28;20437;-80
2022/02/15 10:14:10;;;;;;;2.63;2.40;;;17.80;48.20;;;;;;4995226;28;20512;-80
2022/02/15 10:16:45;;;;;;;2.67;2.47;;;17.80;48.20;;;;;;4995203;28;20445;-80
2022/02/15 10:19:20;;;;;;;2.60;2.40;;;17.80;48.40;;;;;;4996310;28;20495;-80
2022/02/15 10:21:51;;;;;;;2.20;2.10;;;17.70;48.20;;;;;;4996176;28;20471;-79
2022/02/15 10:24:19;;;;;;;2.47;2.13;;;17.70;48.20;;;;;;4992903;28;20503;-79
2022/02/15 10:26:54;;;;;;;2.10;2.00;;;17.70;48.50;;;;;;4997175;28;20476;-79
2022/02/15 10:29:24;;;;;;;2.40;2.30;;;17.70;48.30;;;;;;4997242;28;20514;-79
2022/02/15 10:31:57;;;;;;;2.63;2.43;;;17.70;48.60;;;;;;4997881;28;20527;-79
2022/02/15 10:34:25;;;;;;;2.40;2.20;;;17.70;48.60;;;;;;4998448;28;20457;-79
2022/02/15 10:36:59;;;;;;;2.73;2.47;;;17.70;48.60;;;;;;4999075;28;20446;-79
2022/02/15 10:39:45;;;;;;;3.47;2.80;;;17.70;48.50;;;;;;4999533;28;20494;-80
2022/02/15 10:42:15;;;;;;;3.60;3.30;;;17.80;48.60;;;;;;4998445;28;20449;-80
2022/02/15 10:44:57;;;;;;;3.47;2.70;;;17.90;48.50;;;;;;4999552;28;20528;-80
2022/02/15 10:47:25;;;;;;;3.07;2.77;;;18.00;48.40;;;;;;4998492;28;20480;-79
2022/02/15 10:50:21;;;;;;;4.40;3.20;;;18.00;48.40;;;;;;5001954;28;20483;-79
2022/02/15 10:52:52;;;;;;;3.20;3.00;;;18.20;48.50;;;;;;5008853;28;20472;-81
2022/02/15 10:55:20;;;;;;;4.80;3.30;;;18.20;48.20;;;;;;5008274;28;20457;-80
2022/02/15 10:57:48;;;;;;;3.73;3.20;;;18.30;48.40;;;;;;5008024;28;20437;-80
2022/02/15 11:00:18;;;;;;;2.70;2.50;;;18.40;48.10;;;;;;5004179;28;20478;-81
2022/02/15 11:02:47;;;;;;;3.70;3.40;;;18.60;48.30;;;;;;5006202;28;20442;-81
2022/02/15 11:05:19;;;;;;;6.23;2.80;;;19.10;48.70;;;;;;4997482;28;20493;-81
2022/02/15 11:07:47;;;;;;;3.57;3.27;;;19.40;48.00;;;;;;5004512;28;20448;-81
2022/02/15 11:10:18;;;;;;;3.40;3.10;;;19.90;47.90;;;;;;5009452;28;20445;-82
2022/02/15 11:12:48;;;;;;;3.17;2.73;;;20.40;47.30;;;;;;5003239;28;20469;-81
2022/02/15 11:15:22;;;;;;;5.17;2.87;;;20.80;46.30;;;;;;5008705;28;20447;-81
2022/02/15 11:17:51;;;;;;;3.57;2.90;;;21.20;46.20;;;;;;5001010;28;20442;-81
2022/02/15 11:20:20;;;;;;;3.73;3.20;;;21.60;45.70;;;;;;5003041;28;20441;-81
2022/02/15 11:22:49;;;;;;;3.20;2.63;;;21.80;45.40;;;;;;5008865;28;20476;-81
2022/02/15 11:25:28;;;;;;;3.10;2.53;;;22.10;44.90;;;;;;5004704;28;20477;-81
2022/02/15 11:27:56;;;;;;;3.50;2.80;;;22.20;44.60;;;;;;5008525;28;20444;-81
2022/02/15 11:30:28;;;;;;;3.00;2.60;;;22.20;44.30;;;;;;5008848;28;20460;-80
2022/02/15 11:33:06;;;;;;;2.50;2.40;;;22.10;44.20;;;;;;5008199;28;20532;-81
2022/02/15 11:35:34;;;;;;;3.10;2.90;;;22.00;44.60;;;;;;5009365;28;20480;-81
2022/02/15 11:38:09;;;;;;;2.73;2.50;;;22.20;45.60;;;;;;5007133;28;20445;-80
2022/02/15 11:40:37;;;;;;;2.80;2.60;;;22.60;45.30;;;;;;5009015;28;20476;-80
2022/02/15 11:43:05;;;;;;;3.63;2.70;;;22.30;43.40;;;;;;5009034;28;20456;-81
2022/02/15 11:45:38;;;;;;;3.20;2.90;;;21.90;43.90;;;;;;5010594;28;20461;-81
2022/02/15 11:48:07;;;;;;;3.80;3.17;;;21.70;44.50;;;;;;5012986;28;20488;-81
2022/02/15 11:50:42;;;;;;;3.00;2.80;;;21.70;45.70;;;;;;5012416;28;20452;-81
2022/02/15 11:53:10;;;;;;;3.10;2.53;;;22.10;45.60;;;;;;5010137;28;20448;-81
2022/02/15 11:55:38;;;;;;;3.20;2.90;;;22.60;43.80;;;;;;5009645;28;20464;-81
2022/02/15 11:58:08;;;;;;;3.23;2.77;;;23.40;44.20;;;;;;5012475;28;20453;-81
2022/02/15 12:00:38;;;;;;;2.60;2.50;;;23.40;42.50;;;;;;5010690;28;20468;-82
2022/02/15 12:03:06;;;;;;;3.53;2.63;;;23.00;42.70;;;;;;5009678;28;20449;-81
2022/02/15 12:05:40;;;;;;;2.47;2.33;;;22.70;43.30;;;;;;5009085;28;20461;-82
2022/02/15 12:08:08;;;;;;;2.80;2.63;;;23.30;44.20;;;;;;5007096;28;20484;-81
2022/02/15 12:10:36;;;;;;;3.30;2.43;;;24.50;43.60;;;;;;5009714;28;20420;-81
2022/02/15 12:13:04;;;;;;;2.27;2.17;;;24.40;42.60;;;;;;5008908;28;20428;-81
2022/02/15 12:15:36;;;;;;;2.43;2.23;;;24.70;41.00;;;;;;5008642;28;20477;-81
2022/02/15 12:18:05;;;;;;;3.03;2.77;;;24.30;41.40;;;;;;5008360;28;20475;-80
2022/02/15 12:20:33;;;;;;;3.33;2.60;;;23.90;41.90;;;;;;5009027;28;20468;-81
2022/02/15 12:23:00;;;;;;;2.77;2.57;;;23.50;42.10;;;;;;5007018;28;20476;-80
2022/02/15 12:25:29;;;;;;;3.00;2.43;;;23.20;42.50;;;;;;5009109;28;20475;-80
2022/02/15 12:28:00;;;;;;;2.40;2.20;;;23.00;43.20;;;;;;5008506;28;20469;-80
2022/02/15 12:30:28;;;;;;;4.80;2.10;;;22.70;43.40;;;;;;5011285;28;20429;-81
2022/02/15 12:32:57;;;;;;;3.70;2.47;;;22.50;43.80;;;;;;5010371;28;20458;-81
2022/02/15 12:35:26;;;;;;;3.47;2.87;;;22.50;44.00;;;;;;5009677;28;20461;-81
2022/02/15 12:37:56;;;;;;;2.20;2.10;;;22.30;44.20;;;;;;5010659;28;20464;-81
2022/02/15 12:40:24;;;;;;;2.87;2.50;;;22.10;44.20;;;;;;5009814;28;20445;-81
2022/02/15 12:42:52;;;;;;;2.10;2.00;;;22.30;44.90;;;;;;5007796;28;20445;-81
2022/02/15 12:45:20;;;;;;;2.53;2.33;;;22.20;44.20;;;;;;5010455;28;20464;-81
2022/02/15 12:47:48;;;;;;;2.47;2.27;;;22.00;44.40;;;;;;5011256;28;20473;-81
2022/02/15 12:50:18;;;;;;;2.60;2.17;;;21.90;44.70;;;;;;5011268;28;20449;-80
2022/02/15 12:52:47;;;;;;;2.37;2.17;;;21.70;44.80;;;;;;5009855;28;20469;-81
2022/02/15 12:55:15;;;;;;;2.80;2.57;;;21.50;44.90;;;;;;5011330;28;20457;-81
2022/02/15 12:57:46;;;;;;;2.97;2.70;;;21.40;44.80;;;;;;5010205;28;20464;-81
2022/02/15 13:00:15;;;;;;;2.33;2.20;;;21.30;45.00;;;;;;5010484;28;20473;-82
2022/02/15 13:02:45;;;;;;;2.60;2.40;;;21.20;45.20;;;;;;5011113;28;20421;-82
2022/02/15 13:05:13;;;;;;;2.70;2.30;;;21.10;45.20;;;;;;5007081;28;20456;-82
2022/02/15 13:07:47;;;;;;;2.60;2.30;;;21.10;45.40;;;;;;5009949;28;20468;-82